createdAt,value
2019-03-09T00:00:30.788Z,73.88
2019-03-09T00:01:30.716Z,74.19
2019-03-09T00:02:30.678Z,74.91
2019-03-09T00:03:30.676Z,73.88
2019-03-09T00:04:30.621Z,74.60
2019-03-09T00:05:30.679Z,74.08
2019-03-09T00:06:30.653Z,73.77
2019-03-09T00:07:30.593Z,72.95
2019-03-09T00:08:30.634Z,73.67
2019-03-09T00:09:31.364Z,73.26
2019-03-09T00:10:30.578Z,73.47
2019-03-09T00:11:30.636Z,73.67
2019-03-09T00:12:30.597Z,74.29
2019-03-09T00:13:31.358Z,73.36
2019-03-09T00:14:30.589Z,73.47
2019-03-09T00:15:31.359Z,73.47
2019-03-09T00:16:30.510Z,73.47
2019-03-09T00:17:30.462Z,73.57
2019-03-09T00:18:30.506Z,73.16
2019-03-09T00:19:30.498Z,73.36
2019-03-09T00:20:30.524Z,72.85
2019-03-09T00:21:31.364Z,73.16
2019-03-09T00:22:30.430Z,73.57
2019-03-09T00:23:30.473Z,74.08
2019-03-09T00:24:30.474Z,73.67
2019-03-09T00:25:30.495Z,73.16
2019-03-09T00:26:30.442Z,73.47
2019-03-09T00:27:30.446Z,73.71
2019-03-09T00:28:30.513Z,73.47
2019-03-09T00:29:30.386Z,73.05
2019-03-09T00:30:30.475Z,73.67
2019-03-09T00:31:30.397Z,73.36
2019-03-09T00:32:30.342Z,73.77
2019-03-09T00:33:30.347Z,73.05
2019-03-09T00:34:30.341Z,73.16
2019-03-09T00:35:31.863Z,73.47
2019-03-09T00:36:30.376Z,73.26
2019-03-09T00:37:30.271Z,73.98
2019-03-09T00:38:30.315Z,73.26
2019-03-09T00:39:30.283Z,73.05
2019-03-09T00:40:30.223Z,73.36
2019-03-09T00:41:30.574Z,73.47
2019-03-09T00:42:30.359Z,73.57
2019-03-09T00:43:30.256Z,74.08
2019-03-09T00:44:30.212Z,73.77
2019-03-09T00:45:30.867Z,73.26
2019-03-09T00:46:30.251Z,73.16
2019-03-09T00:47:30.202Z,73.47
2019-03-09T00:48:30.364Z,72.95
2019-03-09T00:49:30.219Z,73.47
2019-03-09T00:50:30.173Z,73.16
2019-03-09T00:51:30.192Z,73.05
2019-03-09T00:52:31.064Z,73.98
2019-03-09T00:53:31.366Z,73.57
2019-03-09T00:54:33.040Z,73.47
2019-03-09T00:55:31.376Z,73.67
2019-03-09T00:56:31.316Z,73.36
2019-03-09T00:57:30.106Z,72.95
2019-03-09T00:58:33.368Z,73.16
2019-03-09T00:59:30.163Z,73.26
2019-03-09T01:00:30.055Z,72.64
2019-03-09T01:01:31.073Z,73.22
2019-03-09T01:02:30.030Z,73.77
2019-03-09T01:03:30.107Z,73.67
2019-03-09T01:04:29.948Z,73.43
2019-03-09T01:05:29.962Z,73.26
2019-03-09T01:06:29.960Z,73.47
2019-03-09T01:07:30.044Z,73.57
2019-03-09T01:08:31.171Z,73.67
2019-03-09T01:09:30.003Z,73.57
2019-03-09T01:10:30.955Z,74.19
2019-03-09T01:11:31.368Z,74.19
2019-03-09T01:12:31.453Z,74.40
2019-03-09T01:13:31.273Z,74.50
2019-03-09T01:14:30.081Z,74.50
2019-03-09T01:15:29.865Z,74.19
2019-03-09T01:16:29.928Z,74.08
2019-03-09T01:17:30.139Z,74.29
2019-03-09T01:18:30.875Z,74.77
2019-03-09T01:19:32.418Z,74.36
2019-03-09T01:20:29.881Z,74.36
2019-03-09T01:21:29.824Z,74.67
2019-03-09T01:22:29.843Z,74.77
2019-03-09T01:23:29.811Z,74.88
2019-03-09T01:24:29.835Z,74.98
2019-03-09T01:25:29.823Z,74.46
2019-03-09T01:26:29.816Z,74.67
2019-03-09T01:27:31.178Z,74.26
2019-03-09T01:28:30.885Z,74.98
2019-03-09T01:29:29.759Z,75.19
2019-03-09T01:30:29.734Z,75.49
2019-03-09T01:31:29.751Z,75.39
2019-03-09T01:32:29.766Z,74.88
2019-03-09T01:33:29.723Z,75.19
2019-03-09T01:34:29.677Z,75.60
2019-03-09T01:35:30.069Z,75.43
2019-03-09T01:36:29.657Z,75.70
2019-03-09T01:37:29.694Z,75.09
2019-03-09T01:38:30.372Z,75.91
2019-03-09T01:39:29.626Z,75.81
2019-03-09T01:40:30.470Z,75.91
2019-03-09T01:41:29.624Z,76.05
2019-03-09T01:42:29.606Z,75.63
2019-03-09T01:43:29.654Z,75.74
2019-03-09T01:44:29.624Z,75.63
2019-03-09T01:45:29.760Z,75.74
2019-03-09T01:46:30.376Z,75.74
2019-03-09T01:47:29.618Z,75.95
2019-03-09T01:48:30.401Z,76.05
2019-03-09T01:49:29.570Z,75.95
2019-03-09T01:50:29.563Z,76.26
2019-03-09T01:51:30.376Z,75.84
2019-03-09T01:52:29.651Z,75.84
2019-03-09T01:53:36.458Z,76.36
2019-03-09T01:54:30.566Z,76.46
2019-03-09T01:55:29.477Z,76.46
2019-03-09T01:56:31.936Z,76.36
2019-03-09T01:57:29.479Z,76.26
2019-03-09T01:58:29.463Z,76.15
2019-03-09T01:59:29.437Z,75.95
2019-03-09T02:00:29.407Z,76.15
2019-03-09T02:01:29.436Z,76.05
2019-03-09T02:02:29.359Z,76.50
2019-03-09T02:03:29.345Z,76.70
2019-03-09T02:04:29.362Z,76.50
2019-03-09T02:05:29.389Z,76.29
2019-03-09T02:06:29.317Z,76.18
2019-03-09T02:07:29.365Z,76.18
2019-03-09T02:08:29.315Z,76.29
2019-03-09T02:09:29.333Z,76.39
2019-03-09T02:10:29.298Z,76.70
2019-03-09T02:11:29.267Z,76.39
2019-03-09T02:12:29.282Z,76.39
2019-03-09T02:13:29.280Z,76.50
2019-03-09T02:14:29.249Z,76.18
2019-03-09T02:15:29.252Z,76.29
2019-03-09T02:16:29.225Z,76.29
2019-03-09T02:17:29.241Z,76.26
2019-03-09T02:18:29.263Z,76.39
2019-03-09T02:19:29.201Z,76.60
2019-03-09T02:20:29.310Z,76.60
2019-03-09T02:21:29.189Z,76.81
2019-03-09T02:22:29.150Z,76.91
2019-03-09T02:23:29.149Z,76.77
2019-03-09T02:24:29.171Z,77.08
2019-03-09T02:25:29.148Z,76.77
2019-03-09T02:26:29.149Z,76.46
2019-03-09T02:27:29.113Z,76.18
2019-03-09T02:28:29.109Z,76.05
2019-03-09T02:29:29.097Z,76.05
2019-03-09T02:30:29.092Z,76.26
2019-03-09T02:31:29.065Z,76.46
2019-03-09T02:32:29.064Z,75.95
2019-03-09T02:33:29.049Z,76.26
2019-03-09T02:34:29.047Z,75.95
2019-03-09T02:35:29.069Z,76.26
2019-03-09T02:36:29.012Z,76.56
2019-03-09T02:37:29.008Z,76.15
2019-03-09T02:38:28.988Z,76.26
2019-03-09T02:39:29.001Z,76.26
2019-03-09T02:40:28.997Z,76.36
2019-03-09T02:41:29.006Z,76.26
2019-03-09T02:42:28.996Z,76.26
2019-03-09T02:43:28.942Z,76.46
2019-03-09T02:44:28.994Z,76.12
2019-03-09T02:45:28.950Z,76.32
2019-03-09T02:46:28.916Z,76.32
2019-03-09T02:47:28.988Z,76.43
2019-03-09T02:48:28.922Z,76.53
2019-03-09T02:49:28.893Z,76.53
2019-03-09T02:50:28.950Z,76.32
2019-03-09T02:51:28.898Z,76.26
2019-03-09T02:52:28.883Z,76.22
2019-03-09T02:53:28.838Z,76.22
2019-03-09T02:54:28.838Z,76.22
2019-03-09T02:55:28.812Z,75.70
2019-03-09T02:56:28.806Z,75.87
2019-03-09T02:57:28.845Z,75.60
2019-03-09T02:58:28.780Z,76.01
2019-03-09T02:59:28.777Z,76.22
2019-03-09T03:00:28.782Z,76.32
2019-03-09T03:01:28.817Z,75.81
2019-03-09T03:02:28.802Z,75.91
2019-03-09T03:03:28.761Z,76.32
2019-03-09T03:04:28.753Z,76.22
2019-03-09T03:05:28.710Z,76.18
2019-03-09T03:06:28.729Z,76.08
2019-03-09T03:07:28.752Z,76.29
2019-03-09T03:08:28.686Z,76.70
2019-03-09T03:09:28.679Z,76.50
2019-03-09T03:10:28.696Z,76.32
2019-03-09T03:11:28.647Z,76.43
2019-03-09T03:12:28.670Z,76.39
2019-03-09T03:13:28.670Z,76.29
2019-03-09T03:14:28.628Z,76.60
2019-03-09T03:15:28.644Z,76.50
2019-03-09T03:16:28.605Z,76.29
2019-03-09T03:17:28.594Z,76.60
2019-03-09T03:18:28.626Z,76.60
2019-03-09T03:19:28.561Z,76.60
2019-03-09T03:20:28.557Z,76.50
2019-03-09T03:21:28.551Z,76.70
2019-03-09T03:22:28.567Z,76.50
2019-03-09T03:23:28.536Z,76.60
2019-03-09T03:24:28.594Z,76.60
2019-03-09T03:25:28.591Z,76.90
2019-03-09T03:26:29.394Z,76.81
2019-03-09T03:27:28.533Z,76.90
2019-03-09T03:28:28.499Z,77.11
2019-03-09T03:29:28.487Z,77.22
2019-03-09T03:30:28.447Z,77.15
2019-03-09T03:31:28.452Z,77.53
2019-03-09T03:32:28.475Z,77.01
2019-03-09T03:33:28.497Z,77.22
2019-03-09T03:34:28.430Z,77.94
2019-03-09T03:35:28.435Z,77.84
2019-03-09T03:36:28.472Z,77.56
2019-03-09T03:37:28.389Z,77.63
2019-03-09T03:38:28.399Z,77.32
2019-03-09T03:39:28.372Z,77.63
2019-03-09T03:40:28.369Z,77.32
2019-03-09T03:41:28.357Z,77.63
2019-03-09T03:42:28.323Z,77.73
2019-03-09T03:43:28.360Z,77.73
2019-03-09T03:44:28.339Z,78.25
2019-03-09T03:45:28.376Z,77.63
2019-03-09T03:46:28.312Z,77.94
2019-03-09T03:47:28.313Z,77.73
2019-03-09T03:48:28.259Z,77.94
2019-03-09T03:49:28.258Z,77.63
2019-03-09T03:50:28.299Z,77.84
2019-03-09T03:51:28.240Z,77.73
2019-03-09T03:52:28.239Z,77.84
2019-03-09T03:53:29.053Z,77.94
2019-03-09T03:54:28.261Z,78.05
2019-03-09T03:55:28.234Z,78.05
2019-03-09T03:56:28.197Z,77.63
2019-03-09T03:57:28.182Z,77.91
2019-03-09T03:58:28.182Z,77.73
2019-03-09T03:59:28.208Z,78.25
2019-03-09T04:00:28.140Z,77.80
2019-03-09T04:01:28.189Z,78.01
2019-03-09T04:02:28.155Z,78.01
2019-03-09T04:03:28.123Z,78.63
2019-03-09T04:04:28.091Z,77.91
2019-03-09T04:05:28.120Z,78.01
2019-03-09T04:06:28.085Z,78.42
2019-03-09T04:07:28.061Z,78.94
2019-03-09T04:08:28.054Z,79.04
2019-03-09T04:09:28.070Z,79.04
2019-03-09T04:10:28.015Z,80.18
2019-03-09T04:11:28.082Z,79.97
2019-03-09T04:12:28.079Z,80.48
2019-03-09T04:13:28.003Z,80.28
2019-03-09T04:14:28.009Z,79.97
2019-03-09T04:15:27.998Z,80.48
2019-03-09T04:16:27.988Z,80.83
2019-03-09T04:17:27.968Z,80.69
2019-03-09T04:18:28.062Z,80.21
2019-03-09T04:19:28.011Z,80.00
2019-03-09T04:20:27.973Z,80.07
2019-03-09T04:21:27.926Z,80.62
2019-03-09T04:22:27.887Z,80.52
2019-03-09T04:23:28.057Z,80.73
2019-03-09T04:24:27.895Z,80.83
2019-03-09T04:25:28.462Z,80.73
2019-03-09T04:26:27.912Z,80.83
2019-03-09T04:27:27.859Z,81.35
2019-03-09T04:28:27.869Z,80.83
2019-03-09T04:29:28.107Z,80.52
2019-03-09T04:30:27.823Z,80.52
2019-03-09T04:31:27.829Z,80.93
2019-03-09T04:32:27.807Z,81.04
2019-03-09T04:33:27.810Z,80.62
2019-03-09T04:34:27.817Z,81.41
2019-03-09T04:35:27.771Z,82.38
2019-03-09T04:36:27.761Z,80.93
2019-03-09T04:37:27.758Z,81.04
2019-03-09T04:38:27.783Z,81.04
2019-03-09T04:39:27.779Z,80.07
2019-03-09T04:40:27.767Z,80.58
2019-03-09T04:41:27.707Z,80.58
2019-03-09T04:42:27.719Z,80.93
2019-03-09T04:43:27.704Z,81.04
2019-03-09T04:44:27.678Z,80.93
2019-03-09T04:45:27.710Z,81.04
2019-03-09T04:46:27.677Z,80.79
2019-03-09T04:47:37.072Z,81.14
2019-03-09T04:48:27.601Z,81.35
2019-03-09T04:49:27.755Z,81.21
2019-03-09T04:50:27.609Z,81.45
2019-03-09T04:51:27.612Z,80.83
2019-03-09T04:52:27.594Z,80.93
2019-03-09T04:53:27.561Z,81.35
2019-03-09T04:54:27.593Z,80.93
2019-03-09T04:55:27.575Z,81.24
2019-03-09T04:56:27.572Z,80.90
2019-03-09T04:57:27.590Z,80.62
2019-03-09T04:58:27.560Z,80.21
2019-03-09T04:59:27.529Z,80.42
2019-03-09T05:00:27.535Z,80.38
2019-03-09T05:01:27.515Z,80.38
2019-03-09T05:02:27.483Z,80.48
2019-03-09T05:03:27.523Z,80.28
2019-03-09T05:04:27.492Z,80.07
2019-03-09T05:05:27.496Z,80.58
2019-03-09T05:06:27.509Z,80.69
2019-03-09T05:07:27.420Z,80.90
2019-03-09T05:08:27.456Z,80.79
2019-03-09T05:09:27.462Z,81.00
2019-03-09T05:10:27.411Z,82.03
2019-03-09T05:11:27.374Z,82.45
2019-03-09T05:12:27.423Z,81.14
2019-03-09T05:13:27.404Z,81.56
2019-03-09T05:14:27.399Z,81.93
2019-03-09T05:15:27.361Z,82.03
2019-03-09T05:16:27.352Z,82.17
2019-03-09T05:17:27.939Z,81.56
2019-03-09T05:18:27.379Z,81.35
2019-03-09T05:19:27.286Z,81.35
2019-03-09T05:20:27.308Z,81.24
2019-03-09T05:21:27.274Z,81.96
2019-03-09T05:22:27.285Z,81.35
2019-03-09T05:23:27.273Z,81.31
2019-03-09T05:24:27.292Z,82.17
2019-03-09T05:25:27.218Z,82.48
2019-03-09T05:26:27.230Z,82.07
2019-03-09T05:27:27.242Z,82.17
2019-03-09T05:28:27.219Z,81.45
2019-03-09T05:29:27.199Z,81.66
2019-03-09T05:30:27.184Z,81.56
2019-03-09T05:31:27.177Z,80.93
2019-03-09T05:32:27.204Z,81.04
2019-03-09T05:33:27.161Z,81.04
2019-03-09T05:34:27.256Z,81.04
2019-03-09T05:35:27.234Z,80.62
2019-03-09T05:36:27.117Z,80.62
2019-03-09T05:37:27.163Z,80.69
2019-03-09T05:38:27.164Z,80.90
2019-03-09T05:39:28.179Z,81.00
2019-03-09T05:40:27.947Z,81.00
2019-03-09T05:41:27.060Z,80.79
2019-03-09T05:42:27.035Z,80.58
2019-03-09T05:43:27.038Z,80.38
2019-03-09T05:44:27.197Z,80.07
2019-03-09T05:45:27.027Z,79.97
2019-03-09T05:46:27.019Z,80.69
2019-03-09T05:47:27.072Z,80.38
2019-03-09T05:48:27.941Z,80.32
2019-03-09T05:49:27.045Z,80.48
2019-03-09T05:50:32.701Z,80.90
2019-03-09T05:51:28.534Z,81.31
2019-03-09T05:52:27.014Z,81.10
2019-03-09T05:53:27.182Z,81.41
2019-03-09T05:54:27.237Z,82.14
2019-03-09T05:55:27.020Z,82.03
2019-03-09T05:56:27.197Z,82.24
2019-03-09T05:57:27.109Z,82.86
2019-03-09T05:58:27.104Z,82.55
2019-03-09T05:59:27.015Z,82.65
2019-03-09T06:00:26.893Z,83.17
2019-03-09T06:01:26.881Z,82.65
2019-03-09T06:02:26.862Z,83.48
2019-03-09T06:03:27.014Z,83.48
2019-03-09T06:04:26.848Z,82.86
2019-03-09T06:05:26.969Z,83.20
2019-03-09T06:06:27.120Z,84.20
2019-03-09T06:07:26.782Z,83.48
2019-03-09T06:08:26.805Z,83.78
2019-03-09T06:09:26.875Z,84.09
2019-03-09T06:10:26.850Z,84.55
2019-03-09T06:11:26.804Z,84.09
2019-03-09T06:12:26.766Z,85.06
2019-03-09T06:13:26.754Z,85.27
2019-03-09T06:14:28.320Z,84.92
2019-03-09T06:15:26.827Z,85.58
2019-03-09T06:16:26.720Z,85.37
2019-03-09T06:17:26.725Z,85.37
2019-03-09T06:18:26.682Z,85.89
2019-03-09T06:19:26.733Z,86.20
2019-03-09T06:20:26.724Z,86.61
2019-03-09T06:21:26.809Z,86.41
2019-03-09T06:22:27.446Z,87.65
2019-03-09T06:23:26.872Z,87.34
2019-03-09T06:24:26.683Z,86.41
2019-03-09T06:25:26.816Z,87.02
2019-03-09T06:26:26.839Z,87.65
2019-03-09T06:27:26.711Z,87.44
2019-03-09T06:28:27.707Z,86.92
2019-03-09T06:29:27.117Z,87.95
2019-03-09T06:30:26.604Z,87.74
2019-03-09T06:31:27.449Z,88.26
2019-03-09T06:32:29.035Z,88.92
2019-03-09T06:33:28.061Z,88.47
2019-03-09T06:34:28.422Z,88.92
2019-03-09T06:35:29.095Z,88.82
2019-03-09T06:36:29.977Z,88.82
2019-03-09T06:37:28.369Z,89.03
2019-03-09T06:38:29.334Z,88.92
2019-03-09T06:39:30.414Z,88.82
2019-03-09T06:40:26.670Z,89.44
2019-03-09T06:41:26.530Z,89.44
2019-03-09T06:42:26.610Z,89.13
2019-03-09T06:43:26.631Z,89.03
2019-03-09T06:44:26.496Z,89.13
2019-03-09T06:45:26.913Z,89.71
2019-03-09T06:46:26.411Z,89.13
2019-03-09T06:47:27.461Z,88.92
2019-03-09T06:48:32.728Z,89.34
2019-03-09T06:49:30.852Z,89.44
2019-03-09T06:50:28.498Z,89.95
2019-03-09T06:51:29.784Z,90.47
2019-03-09T06:52:30.639Z,90.47
2019-03-09T06:53:27.855Z,90.58
2019-03-09T06:54:29.838Z,90.26
2019-03-09T06:55:27.912Z,89.75
2019-03-09T06:56:26.481Z,89.86
2019-03-09T06:57:26.350Z,90.89
2019-03-09T06:58:26.433Z,90.78
2019-03-09T06:59:26.463Z,90.58
2019-03-09T07:00:30.112Z,90.37
2019-03-09T07:01:27.095Z,89.92
2019-03-09T07:02:26.236Z,89.44
2019-03-09T07:03:26.235Z,89.65
2019-03-09T07:04:26.277Z,89.61
2019-03-09T07:05:26.212Z,89.65
2019-03-09T07:06:27.037Z,89.44
2019-03-09T07:07:26.437Z,89.44
2019-03-09T07:08:26.184Z,89.95
2019-03-09T07:09:26.170Z,90.47
2019-03-09T07:10:26.172Z,90.26
2019-03-09T07:11:26.131Z,89.34
2019-03-09T07:12:26.170Z,90.06
2019-03-09T07:13:26.148Z,89.54
2019-03-09T07:14:26.143Z,90.12
2019-03-09T07:15:26.087Z,90.53
2019-03-09T07:16:26.087Z,90.12
2019-03-09T07:17:26.102Z,90.08
2019-03-09T07:18:26.164Z,89.19
2019-03-09T07:19:26.081Z,89.15
2019-03-09T07:20:26.026Z,89.05
2019-03-09T07:21:26.025Z,88.84
2019-03-09T07:22:26.034Z,87.23
2019-03-09T07:23:26.114Z,87.71
2019-03-09T07:24:26.015Z,87.60
2019-03-09T07:25:26.454Z,87.40
2019-03-09T07:26:25.981Z,87.08
2019-03-09T07:27:25.968Z,87.08
2019-03-09T07:28:25.971Z,87.40
2019-03-09T07:29:26.053Z,87.92
2019-03-09T07:30:25.935Z,86.88
2019-03-09T07:31:25.940Z,86.05
2019-03-09T07:32:25.942Z,86.26
2019-03-09T07:33:26.962Z,86.78
2019-03-09T07:34:25.912Z,86.57
2019-03-09T07:35:25.976Z,85.54
2019-03-09T07:36:25.868Z,86.22
2019-03-09T07:37:25.889Z,85.54
2019-03-09T07:38:25.867Z,86.47
2019-03-09T07:39:25.993Z,86.78
2019-03-09T07:40:26.960Z,86.02
2019-03-09T07:41:25.929Z,86.32
2019-03-09T07:42:25.895Z,85.81
2019-03-09T07:43:25.891Z,85.71
2019-03-09T07:44:26.457Z,86.12
2019-03-09T07:45:25.775Z,84.78
2019-03-09T07:46:25.778Z,85.09
2019-03-09T07:47:25.770Z,85.30
2019-03-09T07:48:25.803Z,84.88
2019-03-09T07:49:25.840Z,85.19
2019-03-09T07:50:25.927Z,84.99
2019-03-09T07:51:25.721Z,84.78
2019-03-09T07:52:26.497Z,84.88
2019-03-09T07:53:25.713Z,85.19
2019-03-09T07:54:25.749Z,85.09
2019-03-09T07:55:25.758Z,84.88
2019-03-09T07:56:25.672Z,84.67
2019-03-09T07:57:25.657Z,84.01
2019-03-09T07:58:25.684Z,84.33
2019-03-09T07:59:25.641Z,84.22
2019-03-09T08:00:25.615Z,84.43
2019-03-09T08:01:25.704Z,83.40
2019-03-09T08:02:25.634Z,83.81
2019-03-09T08:03:25.635Z,83.19
2019-03-09T08:04:25.638Z,82.78
2019-03-09T08:05:25.661Z,82.33
2019-03-09T08:06:25.597Z,82.64
2019-03-09T08:07:25.554Z,82.47
2019-03-09T08:08:25.540Z,82.33
2019-03-09T08:09:25.547Z,82.23
2019-03-09T08:10:25.503Z,81.81
2019-03-09T08:11:25.529Z,81.92
2019-03-09T08:12:25.535Z,82.12
2019-03-09T08:13:25.483Z,82.02
2019-03-09T08:14:25.526Z,81.77
2019-03-09T08:15:25.498Z,81.47
2019-03-09T08:16:35.107Z,81.16
2019-03-09T08:17:26.544Z,81.26
2019-03-09T08:18:25.463Z,80.44
2019-03-09T08:19:25.426Z,80.75
2019-03-09T08:20:25.433Z,80.51
2019-03-09T08:21:25.396Z,79.99
2019-03-09T08:22:25.407Z,79.64
2019-03-09T08:23:25.380Z,79.75
2019-03-09T08:24:26.022Z,79.64
2019-03-09T08:25:25.449Z,79.03
2019-03-09T08:26:25.349Z,78.61
2019-03-09T08:27:25.356Z,77.75
2019-03-09T08:28:25.388Z,77.45
2019-03-09T08:29:25.351Z,76.73
2019-03-09T08:30:25.313Z,77.75
2019-03-09T08:31:25.304Z,76.93
2019-03-09T08:32:25.363Z,76.93
2019-03-09T08:33:25.301Z,77.10
2019-03-09T08:34:25.298Z,76.79
2019-03-09T08:35:25.319Z,76.79
2019-03-09T08:36:25.252Z,76.48
2019-03-09T08:37:25.462Z,75.93
2019-03-09T08:38:25.264Z,75.42
2019-03-09T08:39:25.231Z,75.63
2019-03-09T08:40:25.221Z,75.59
2019-03-09T08:41:25.265Z,74.87
2019-03-09T08:42:25.176Z,74.87
2019-03-09T08:43:25.200Z,74.98
2019-03-09T08:44:25.165Z,75.01
2019-03-09T08:45:25.165Z,75.42
2019-03-09T08:46:25.152Z,75.12
2019-03-09T08:47:25.130Z,75.52
2019-03-09T08:48:25.158Z,75.97
2019-03-09T08:49:25.133Z,75.97
2019-03-09T08:50:25.113Z,75.67
2019-03-09T08:51:25.120Z,75.97
2019-03-09T08:52:25.085Z,75.87
2019-03-09T08:53:25.138Z,75.32
2019-03-09T08:54:25.138Z,74.29
2019-03-09T08:55:25.168Z,74.05
2019-03-09T08:56:25.063Z,73.85
2019-03-09T08:57:25.500Z,73.81
2019-03-09T08:58:25.126Z,72.85
2019-03-09T08:59:25.987Z,73.06
2019-03-09T09:00:25.101Z,71.11
2019-03-09T09:01:25.019Z,71.39
2019-03-09T09:02:25.473Z,71.62
2019-03-09T09:03:24.962Z,71.31
2019-03-09T09:04:25.972Z,70.77
2019-03-09T09:05:25.079Z,70.87
2019-03-09T09:06:24.969Z,69.95
2019-03-09T09:07:25.033Z,69.64
2019-03-09T09:08:24.967Z,69.61
2019-03-09T09:09:24.938Z,69.51
2019-03-09T09:10:24.947Z,69.51
2019-03-09T09:11:25.586Z,69.51
2019-03-09T09:12:24.878Z,68.89
2019-03-09T09:13:24.995Z,68.14
2019-03-09T09:14:24.962Z,68.24
2019-03-09T09:15:24.867Z,67.83
2019-03-09T09:16:24.890Z,67.29
2019-03-09T09:17:25.812Z,66.13
2019-03-09T09:18:27.555Z,65.49
2019-03-09T09:19:25.573Z,65.59
2019-03-09T09:20:24.868Z,65.18
2019-03-09T09:21:26.156Z,65.52
2019-03-09T09:22:24.815Z,66.44
2019-03-09T09:23:24.809Z,65.11
2019-03-09T09:24:24.865Z,65.11
2019-03-09T09:25:25.477Z,64.90
2019-03-09T09:26:24.768Z,65.55
2019-03-09T09:27:24.706Z,66.37
2019-03-09T09:28:24.673Z,66.54
2019-03-09T09:29:24.708Z,66.57
2019-03-09T09:30:24.647Z,65.96
2019-03-09T09:31:24.762Z,66.67
2019-03-09T09:32:25.699Z,66.44
2019-03-09T09:33:24.686Z,66.34
2019-03-09T09:34:25.505Z,66.13
2019-03-09T09:35:24.624Z,66.64
2019-03-09T09:36:24.610Z,66.54
2019-03-09T09:37:24.636Z,66.37
2019-03-09T09:38:24.662Z,65.59
2019-03-09T09:39:24.600Z,64.67
2019-03-09T09:40:24.571Z,64.67
2019-03-09T09:41:24.577Z,64.87
2019-03-09T09:42:24.582Z,64.90
2019-03-09T09:43:24.552Z,64.90
2019-03-09T09:44:24.536Z,65.42
2019-03-09T09:45:24.541Z,65.86
2019-03-09T09:46:24.984Z,65.42
2019-03-09T09:47:25.077Z,65.59
2019-03-09T09:48:24.530Z,64.57
2019-03-09T09:49:24.495Z,64.57
2019-03-09T09:50:24.477Z,63.51
2019-03-09T09:51:24.519Z,61.47
2019-03-09T09:52:24.428Z,60.03
2019-03-09T09:53:24.442Z,59.73
2019-03-09T09:54:24.575Z,59.55
2019-03-09T09:55:24.464Z,59.73
2019-03-09T09:56:24.592Z,60.27
2019-03-09T09:57:24.400Z,60.17
2019-03-09T09:58:24.360Z,60.30
2019-03-09T09:59:24.363Z,59.89
2019-03-09T10:00:24.324Z,61.04
2019-03-09T10:01:24.342Z,61.73
2019-03-09T10:02:24.361Z,61.83
2019-03-09T10:03:24.341Z,61.32
2019-03-09T10:04:24.333Z,61.63
2019-03-09T10:05:24.273Z,60.27
2019-03-09T10:06:24.288Z,61.40
2019-03-09T10:07:24.275Z,60.19
2019-03-09T10:08:24.296Z,59.96
2019-03-09T10:09:24.249Z,60.37
2019-03-09T10:10:24.268Z,57.79
2019-03-09T10:11:24.246Z,57.58
2019-03-09T10:12:24.265Z,55.84
2019-03-09T10:13:24.221Z,55.84
2019-03-09T10:14:24.194Z,56.10
2019-03-09T10:15:24.212Z,55.41
2019-03-09T10:16:34.433Z,55.21
2019-03-09T10:17:24.198Z,54.39
2019-03-09T10:18:25.506Z,55.10
2019-03-09T10:19:24.988Z,55.74
2019-03-09T10:20:25.507Z,55.64
2019-03-09T10:21:24.265Z,55.23
2019-03-09T10:22:25.104Z,54.54
2019-03-09T10:23:26.243Z,55.87
2019-03-09T10:24:24.095Z,56.18
2019-03-09T10:25:24.096Z,55.69
2019-03-09T10:26:26.553Z,56.20
2019-03-09T10:27:24.123Z,56.79
2019-03-09T10:28:24.080Z,56.59
2019-03-09T10:29:24.064Z,56.38
2019-03-09T10:30:24.129Z,54.82
2019-03-09T10:31:24.042Z,54.82
2019-03-09T10:32:24.026Z,55.43
2019-03-09T10:33:24.468Z,54.82
2019-03-09T10:34:24.303Z,55.74
2019-03-09T10:35:24.031Z,55.02
2019-03-09T10:36:23.979Z,54.80
2019-03-09T10:37:25.606Z,55.41
2019-03-09T10:38:23.983Z,55.62
2019-03-09T10:39:23.951Z,54.82
2019-03-09T10:40:23.909Z,56.35
2019-03-09T10:41:23.974Z,56.76
2019-03-09T10:42:23.956Z,56.69
2019-03-09T10:43:23.932Z,56.69
2019-03-09T10:44:23.904Z,56.48
2019-03-09T10:45:23.908Z,55.26
2019-03-09T10:46:23.939Z,54.92
2019-03-09T10:47:23.843Z,55.26
2019-03-09T10:48:33.136Z,54.54
2019-03-09T10:49:23.910Z,55.05
2019-03-09T10:50:25.900Z,54.33
2019-03-09T10:51:23.797Z,54.85
2019-03-09T10:52:23.805Z,53.82
2019-03-09T10:53:23.778Z,54.13
2019-03-09T10:54:23.772Z,54.46
2019-03-09T10:55:23.768Z,54.36
2019-03-09T10:56:23.745Z,54.36
2019-03-09T10:57:23.791Z,54.87
2019-03-09T10:58:23.813Z,54.33
2019-03-09T10:59:28.029Z,54.16
2019-03-09T11:00:23.756Z,54.87
2019-03-09T11:01:23.738Z,55.49
2019-03-09T11:02:23.673Z,55.15
2019-03-09T11:03:25.022Z,54.64
2019-03-09T11:04:27.681Z,55.49
2019-03-09T11:05:23.705Z,55.28
2019-03-09T11:06:23.663Z,55.18
2019-03-09T11:07:23.624Z,55.28
2019-03-09T11:08:23.650Z,56.61
2019-03-09T11:09:23.617Z,55.49
2019-03-09T11:10:23.596Z,56.00
2019-03-09T11:11:23.602Z,54.97
2019-03-09T11:12:23.702Z,56.00
2019-03-09T11:13:23.637Z,55.87
2019-03-09T11:14:23.570Z,55.36
2019-03-09T11:15:23.618Z,54.95
2019-03-09T11:16:24.203Z,55.02
2019-03-09T11:17:23.550Z,55.54
2019-03-09T11:18:23.515Z,55.84
2019-03-09T11:19:23.528Z,54.49
2019-03-09T11:20:23.521Z,54.59
2019-03-09T11:21:23.657Z,54.05
2019-03-09T11:22:23.492Z,54.26
2019-03-09T11:23:23.614Z,54.57
2019-03-09T11:24:24.106Z,54.67
2019-03-09T11:25:23.438Z,54.87
2019-03-09T11:26:23.599Z,54.23
2019-03-09T11:27:23.451Z,54.23
2019-03-09T11:28:23.486Z,54.67
2019-03-09T11:29:23.406Z,54.87
2019-03-09T11:30:23.413Z,54.77
2019-03-09T11:31:23.394Z,54.97
2019-03-09T11:32:23.398Z,54.46
2019-03-09T11:33:23.415Z,54.67
2019-03-09T11:34:23.550Z,55.18
2019-03-09T11:35:23.349Z,54.67
2019-03-09T11:36:23.320Z,55.05
2019-03-09T11:37:23.314Z,54.54
2019-03-09T11:38:23.368Z,54.11
2019-03-09T11:39:23.287Z,54.39
2019-03-09T11:40:23.293Z,53.27
2019-03-09T11:41:23.287Z,54.28
2019-03-09T11:42:23.325Z,54.11
2019-03-09T11:43:23.283Z,54.61
2019-03-09T11:44:23.270Z,54.33
2019-03-09T11:45:23.357Z,53.90
2019-03-09T11:46:23.216Z,54.21
2019-03-09T11:47:23.240Z,54.72
2019-03-09T11:48:23.229Z,54.61
2019-03-09T11:49:23.191Z,54.51
2019-03-09T11:50:23.218Z,54.33
2019-03-09T11:51:23.187Z,55.36
2019-03-09T11:52:23.193Z,54.44
2019-03-09T11:53:23.211Z,54.26
2019-03-09T11:54:23.126Z,54.85
2019-03-09T11:55:23.114Z,55.76
2019-03-09T11:56:31.708Z,55.49
2019-03-09T11:57:23.113Z,54.31
2019-03-09T11:58:32.215Z,54.61
2019-03-09T11:59:23.061Z,54.21
2019-03-09T12:00:23.057Z,54.74
2019-03-09T12:01:31.724Z,54.77
2019-03-09T12:02:38.796Z,54.26
2019-03-09T12:04:46.079Z,55.38
2019-03-09T12:06:46.496Z,55.62
2019-03-09T12:07:55.697Z,56.33
2019-03-09T12:08:56.667Z,55.82
2019-03-09T12:09:55.778Z,55.41
2019-03-09T12:10:55.860Z,54.80
2019-03-09T12:11:54.839Z,56.12
2019-03-09T12:14:16.738Z,54.39
2019-03-09T12:15:16.474Z,54.18
2019-03-09T12:16:16.430Z,54.90
2019-03-09T12:17:16.298Z,54.59
2019-03-09T12:18:17.295Z,54.69
2019-03-09T12:19:16.369Z,54.87
2019-03-09T12:20:17.121Z,54.46
2019-03-09T12:21:17.001Z,54.44
2019-03-09T12:22:16.358Z,53.21
2019-03-09T12:23:16.208Z,52.98
2019-03-09T12:24:19.750Z,51.35
2019-03-09T12:25:16.355Z,52.25
2019-03-09T12:26:16.998Z,51.12
2019-03-09T12:27:16.133Z,51.02
2019-03-09T12:28:17.085Z,49.49
2019-03-09T12:29:16.167Z,49.18
2019-03-09T12:30:16.261Z,48.77
2019-03-09T12:31:16.138Z,47.55
2019-03-09T12:32:16.116Z,46.92
2019-03-09T12:33:16.125Z,47.02
2019-03-09T12:34:16.998Z,46.20
2019-03-09T12:35:17.012Z,46.41
2019-03-09T12:36:16.178Z,45.39
2019-03-09T12:37:16.068Z,46.33
2019-03-09T12:38:16.061Z,45.92
2019-03-09T12:39:16.173Z,46.30
2019-03-09T12:40:16.031Z,45.61
2019-03-09T12:41:16.124Z,45.20
2019-03-09T12:42:16.055Z,45.39
2019-03-09T12:43:16.043Z,45.89
2019-03-09T12:44:16.031Z,44.87
2019-03-09T12:45:16.100Z,44.75
2019-03-09T12:46:16.100Z,44.83
2019-03-09T12:47:15.988Z,45.14
2019-03-09T12:48:16.637Z,44.71
2019-03-09T12:49:16.017Z,44.40
2019-03-09T12:50:15.946Z,44.89
2019-03-09T12:51:16.526Z,43.37
2019-03-09T12:52:15.990Z,44.51
2019-03-09T12:53:15.975Z,44.40
2019-03-09T12:54:15.861Z,43.23
2019-03-09T12:55:15.924Z,43.12
2019-03-09T12:56:15.854Z,48.31